createdAt,value
2019-04-29T00:02:56.923Z,99.08
2019-04-29T00:07:58.515Z,99.29
2019-04-29T00:13:01.141Z,99.18
2019-04-29T00:18:04.918Z,98.65
2019-04-29T00:23:06.780Z,98.82
2019-04-29T00:28:09.040Z,98.80
2019-04-29T00:33:10.883Z,98.66
2019-04-29T00:38:20.176Z,99.04
2019-04-29T00:43:24.117Z,99.16
2019-04-29T00:48:25.845Z,99.27
2019-04-29T00:53:28.131Z,99.21
2019-04-29T00:58:29.616Z,99.00
2019-04-29T01:03:31.294Z,98.75
2019-04-29T01:08:33.213Z,98.80
2019-04-29T01:13:34.735Z,98.90
2019-04-29T01:18:36.610Z,98.75
2019-04-29T01:23:38.089Z,98.69
2019-04-29T01:28:50.938Z,98.56
2019-04-29T01:33:54.470Z,98.34
2019-04-29T01:38:57.928Z,98.16
2019-04-29T01:44:06.962Z,98.31
2019-04-29T01:49:08.543Z,98.27
2019-04-29T01:54:10.315Z,98.43
2019-04-29T01:59:11.899Z,98.63
2019-04-29T02:04:13.371Z,98.71
2019-04-29T02:09:16.807Z,98.95
2019-04-29T02:14:18.375Z,98.95
2019-04-29T02:19:19.847Z,99.28
2019-04-29T02:24:21.332Z,99.32
2019-04-29T02:29:22.905Z,99.26
2019-04-29T02:34:24.384Z,99.53
2019-04-29T02:39:28.484Z,99.35
2019-04-29T02:44:30.118Z,99.48
2019-04-29T02:49:31.795Z,99.46
2019-04-29T02:54:33.385Z,99.41
2019-04-29T02:59:34.859Z,99.43
2019-04-29T03:04:41.214Z,99.26
2019-04-29T03:09:45.680Z,99.34
2019-04-29T03:14:47.630Z,99.34
2019-04-29T03:20:08.131Z,99.35
2019-04-29T03:25:09.811Z,99.23
2019-04-29T03:30:13.697Z,99.15
2019-04-29T03:35:15.273Z,99.16
2019-04-29T03:40:16.752Z,99.18
2019-04-29T03:45:18.312Z,99.40
2019-04-29T03:50:21.263Z,99.19
2019-04-29T03:55:38.151Z,99.33
2019-04-29T04:00:26.331Z,99.18
2019-04-29T04:05:38.840Z,99.12
2019-04-29T04:10:40.631Z,99.42
2019-04-29T04:15:42.527Z,99.20
2019-04-29T04:20:44.210Z,99.12
2019-04-29T04:25:45.849Z,99.09
2019-04-29T04:30:47.410Z,98.96
2019-04-29T04:35:49.302Z,98.97
2019-04-29T04:41:01.647Z,98.95
2019-04-29T04:46:03.286Z,99.15
2019-04-29T04:51:04.982Z,99.16
2019-04-29T04:56:06.659Z,98.73
2019-04-29T05:01:08.251Z,98.96
2019-04-29T05:06:09.834Z,98.90
2019-04-29T05:11:11.650Z,98.85
2019-04-29T05:16:13.267Z,98.99
2019-04-29T05:21:14.809Z,99.15
2019-04-29T05:26:16.585Z,99.16
2019-04-29T05:31:18.362Z,99.19
2019-04-29T05:36:25.979Z,98.72
2019-04-29T05:41:30.193Z,98.53
2019-04-29T05:46:35.678Z,98.49
2019-04-29T05:51:39.199Z,98.83
2019-04-29T05:56:40.775Z,99.13
2019-04-29T06:01:42.735Z,98.66
2019-04-29T06:06:45.768Z,98.74
2019-04-29T06:11:48.354Z,99.02
2019-04-29T06:16:52.703Z,98.65
2019-04-29T06:21:53.263Z,98.83
2019-04-29T06:26:54.830Z,98.46
2019-04-29T06:31:56.355Z,98.51
2019-04-29T06:36:57.838Z,98.88
2019-04-29T06:41:59.620Z,98.57
2019-04-29T06:47:01.106Z,98.05
2019-04-29T06:52:03.011Z,98.46
2019-04-29T06:57:04.627Z,98.50
2019-04-29T07:02:09.548Z,98.26
2019-04-29T07:07:09.584Z,98.48
2019-04-29T07:12:13.790Z,98.51
2019-04-29T07:17:16.534Z,98.68
2019-04-29T07:22:20.758Z,98.82
2019-04-29T07:27:21.512Z,98.34
2019-04-29T07:32:22.972Z,98.00
2019-04-29T07:37:24.422Z,98.23
2019-04-29T07:42:31.924Z,98.48
2019-04-29T07:47:30.960Z,97.96
2019-04-29T07:52:33.066Z,97.81
2019-04-29T07:57:34.642Z,97.59
2019-04-29T08:02:36.222Z,96.81
2019-04-29T08:07:38.104Z,96.31
2019-04-29T08:12:42.223Z,96.57
2019-04-29T08:17:43.702Z,96.38
2019-04-29T08:22:45.329Z,95.81
2019-04-29T08:27:46.896Z,95.49
2019-04-29T08:32:48.596Z,96.53
2019-04-29T08:37:51.263Z,96.61
2019-04-29T08:43:11.198Z,95.87
2019-04-29T08:48:12.986Z,95.91
2019-04-29T08:53:15.807Z,95.89
2019-04-29T08:58:17.533Z,94.98
2019-04-29T09:03:23.264Z,96.33
2019-04-29T09:08:22.421Z,94.46
2019-04-29T09:13:23.988Z,95.99
2019-04-29T09:18:25.474Z,94.67
2019-04-29T09:23:31.471Z,94.39
2019-04-29T09:28:33.290Z,93.23
2019-04-29T09:33:34.882Z,94.27
2019-04-29T09:38:36.952Z,92.69
2019-04-29T09:43:42.762Z,94.75
2019-04-29T09:48:44.348Z,94.21
2019-04-29T09:53:45.921Z,93.62
2019-04-29T09:58:47.439Z,93.09
2019-04-29T10:03:58.432Z,92.37
2019-04-29T10:09:00.009Z,93.17
2019-04-29T10:14:01.641Z,93.59
2019-04-29T10:19:11.386Z,93.92
2019-04-29T10:24:14.606Z,93.30
2019-04-29T10:29:20.158Z,94.11
2019-04-29T10:34:26.994Z,93.71
2019-04-29T10:39:45.309Z,93.33
2019-04-29T10:45:06.639Z,94.20
2019-04-29T10:50:15.436Z,93.69
2019-04-29T10:55:17.318Z,93.53
2019-04-29T11:00:26.546Z,92.71
2019-04-29T11:05:30.141Z,92.94
2019-04-29T11:10:32.528Z,92.67
2019-04-29T11:15:36.286Z,92.62
2019-04-29T11:20:37.978Z,92.97
2019-04-29T11:25:51.055Z,93.07
2019-04-29T11:30:49.700Z,92.86
2019-04-29T11:36:11.580Z,93.31
2019-04-29T11:41:19.858Z,93.67
2019-04-29T11:46:17.293Z,93.15
2019-04-29T11:51:23.610Z,93.04
2019-04-29T11:56:25.081Z,94.25
2019-04-29T12:01:51.809Z,93.14
2019-04-29T12:06:56.209Z,93.35
2019-04-29T12:11:56.391Z,93.25
2019-04-29T12:17:00.874Z,93.08
2019-04-29T12:22:08.594Z,93.83
2019-04-29T12:27:10.073Z,94.21
2019-04-29T12:32:29.989Z,94.17
2019-04-29T12:37:37.264Z,94.92
2019-04-29T12:42:41.549Z,95.68
2019-04-29T12:47:45.583Z,94.83
2019-04-29T12:52:47.156Z,95.69
2019-04-29T12:57:51.260Z,95.45
2019-04-29T13:03:02.889Z,95.66
2019-04-29T13:08:06.560Z,96.21
2019-04-29T13:13:08.775Z,95.82
2019-04-29T13:18:23.222Z,96.51
2019-04-29T13:23:34.805Z,95.96
2019-04-29T13:28:30.277Z,96.83
2019-04-29T13:33:31.633Z,97.00
2019-04-29T13:38:33.416Z,97.57
2019-04-29T13:43:35.661Z,97.94
2019-04-29T13:49:06.115Z,97.50
2019-04-29T13:54:05.809Z,97.64
2019-04-29T13:59:10.584Z,97.50
2019-04-29T14:04:24.385Z,97.90
2019-04-29T14:09:21.229Z,97.46
2019-04-29T14:14:24.660Z,97.48
2019-04-29T14:19:41.272Z,98.03
2019-04-29T14:24:30.657Z,97.87
2019-04-29T14:29:32.454Z,98.27
2019-04-29T14:34:38.739Z,97.75
2019-04-29T14:39:40.611Z,97.31
2019-04-29T14:44:42.253Z,97.60
2019-04-29T14:49:54.907Z,97.36
2019-04-29T14:54:55.198Z,97.48
2019-04-29T14:59:57.064Z,97.43
2019-04-29T15:04:58.939Z,98.32
2019-04-29T15:10:00.504Z,97.54
2019-04-29T15:15:12.374Z,97.63
2019-04-29T15:20:32.091Z,97.86
2019-04-29T15:25:33.984Z,97.79
2019-04-29T15:30:36.863Z,98.85
2019-04-29T15:35:39.316Z,98.58
2019-04-29T15:40:43.022Z,97.95
2019-04-29T15:45:44.548Z,98.88
2019-04-29T15:50:46.026Z,98.37
2019-04-29T15:55:47.496Z,98.49
2019-04-29T16:00:49.154Z,98.77
2019-04-29T16:06:19.705Z,99.15
2019-04-29T16:11:23.739Z,99.22
2019-04-29T16:16:25.251Z,98.91
2019-04-29T16:21:32.301Z,99.56
2019-04-29T16:26:32.017Z,99.22
2019-04-29T16:31:33.709Z,99.48
2019-04-29T16:36:35.180Z,99.80
2019-04-29T16:41:36.815Z,99.92
2019-04-29T16:46:39.205Z,99.51
2019-04-29T16:51:41.089Z,99.77
2019-04-29T16:56:42.659Z,100.00
2019-04-29T17:01:45.694Z,100.00
2019-04-29T17:07:11.321Z,100.00
2019-04-29T17:11:56.037Z,100.00
2019-04-29T17:16:55.122Z,100.00
2019-04-29T17:22:23.759Z,100.00
2019-04-29T17:27:01.995Z,100.00
2019-04-29T17:32:07.102Z,100.00
2019-04-29T17:37:09.835Z,100.00
2019-04-29T17:42:11.994Z,100.00
2019-04-29T17:47:33.007Z,100.00
2019-04-29T17:52:35.267Z,100.00
2019-04-29T17:57:55.435Z,100.00
2019-04-29T18:03:05.448Z,100.00
2019-04-29T18:08:16.249Z,100.00
2019-04-29T18:13:23.691Z,100.00
2019-04-29T18:18:26.338Z,100.00
2019-04-29T18:23:27.422Z,100.00
2019-04-29T18:28:29.401Z,100.00
2019-04-29T18:33:31.035Z,100.00
2019-04-29T18:38:32.734Z,100.00
2019-04-29T18:43:35.348Z,100.00
2019-04-29T18:48:37.081Z,100.00
2019-04-29T18:53:38.560Z,100.00
2019-04-29T18:58:42.171Z,100.00
2019-04-29T19:03:48.396Z,100.00
2019-04-29T19:08:50.248Z,100.00
2019-04-29T19:13:52.226Z,100.00
2019-04-29T19:19:00.133Z,100.00
2019-04-29T19:24:00.639Z,100.00
2019-04-29T19:29:05.366Z,100.00
2019-04-29T19:34:05.506Z,100.00
2019-04-29T19:39:09.125Z,100.00
2019-04-29T19:44:11.983Z,100.00
2019-04-29T19:49:15.690Z,100.00
2019-04-29T19:54:23.770Z,100.00
2019-04-29T19:59:21.396Z,100.00
2019-04-29T20:04:28.488Z,100.00
2019-04-29T20:09:31.322Z,100.00
2019-04-29T20:14:36.409Z,100.00
2019-04-29T20:19:58.719Z,100.00
2019-04-29T20:24:58.607Z,100.00
2019-04-29T20:30:00.357Z,100.00
2019-04-29T20:35:08.618Z,100.00
2019-04-29T20:40:12.586Z,100.00
2019-04-29T20:45:15.475Z,100.00
2019-04-29T20:50:17.671Z,100.00
2019-04-29T20:55:19.667Z,100.00
2019-04-29T21:00:25.054Z,100.00
2019-04-29T21:05:27.710Z,100.00
2019-04-29T21:10:30.279Z,100.00
2019-04-29T21:15:45.084Z,100.00
2019-04-29T21:20:47.466Z,100.00
2019-04-29T21:25:49.051Z,100.00
2019-04-29T21:30:50.529Z,100.00
2019-04-29T21:35:57.980Z,100.00
2019-04-29T21:41:15.500Z,100.00
2019-04-29T21:46:24.485Z,100.00
2019-04-29T21:51:20.826Z,100.00
2019-04-29T21:56:22.295Z,100.00
2019-04-29T22:01:25.171Z,100.00
2019-04-29T22:06:29.109Z,100.00
2019-04-29T22:11:30.862Z,100.00
2019-04-29T22:16:32.854Z,100.00
2019-04-29T22:21:36.038Z,100.00
2019-04-29T22:26:37.671Z,100.00
2019-04-29T22:31:39.555Z,100.00
2019-04-29T22:36:41.039Z,100.00
2019-04-29T22:41:48.720Z,100.00
2019-04-29T22:46:49.410Z,100.00
2019-04-29T22:51:55.835Z,100.00
2019-04-29T22:56:56.597Z,100.00
2019-04-29T23:01:59.043Z,100.00
2019-04-29T23:07:00.668Z,100.00
2019-04-29T23:12:03.055Z,100.00
2019-04-29T23:17:06.112Z,100.00
2019-04-29T23:22:15.453Z,100.00
2019-04-29T23:27:19.631Z,100.00
2019-04-29T23:32:22.151Z,100.00
2019-04-29T23:37:27.129Z,100.00
2019-04-29T23:42:27.156Z,100.00
2019-04-29T23:47:28.678Z,100.00
2019-04-29T23:52:30.191Z,100.00
2019-04-29T23:57:42.585Z,100.00
